LCRA/AKT METAR and TAF weather

Enter ICAO airport designator
Station Type Date Time Source
LCRA METAR 2020/03/28 08:50 UTC NOAA

LCRA 280850Z 27018KT 9999 FEW025 18/11 Q1012 NOSIG RMK BLU BLU


Station Type Date Time Source
LCRA Decoded METAR 2020/03/28 08:50 UTC NOAA

Akrotiri, Cyprus (LCRA) 34-35N 032-59E 0M
Mar 28, 2020 - 04:50 AM EDT / 2020.03.28 0850 UTC
Wind: from the W (270 degrees) at 21 MPH (18 KT):0
Visibility: greater than 7 mile(s):0
Sky conditions: mostly clear
Temperature: 64 F (18 C)
Dew Point: 51 F (11 C)
Relative Humidity: 63%
Pressure (altimeter): 29.88 in. Hg (1012 hPa)
ob: LCRA 280850Z 27018KT 9999 FEW025 18/11 Q1012 NOSIG RMK BLU BLU
cycle: 9

Station Type Date Time Source
LCRA TAF 2020/03/28 09:33 UTC NOAA

TAF TAF LCRA 280726Z 2809/2903 27018G28KT 9999 FEW025

Example: see airport list